PST,Max TemperatureF,Mean TemperatureF,Min TemperatureF,Max Dew PointF,MeanDew PointF,Min DewpointF,Max Humidity, Mean Humidity, Min Humidity, Max Sea Level PressureIn, Mean Sea Level PressureIn, Min Sea Level PressureIn, Max VisibilityMiles, Mean VisibilityMiles, Min VisibilityMiles, Max Wind SpeedMPH, Mean Wind SpeedMPH, Max Gust SpeedMPH,PrecipitationIn, CloudCover, Events, WindDirDegrees
2013-1-1,37,25,13,25,18,10,92,86,59,30.57,30.43,30.30,10,8,0,8,2,8,0.00,3,Fog,28
2013-1-2,37,26,14,23,18,11,96,79,52,30.48,30.40,30.34,10,10,10,6,1,8,0.00,0,,214
2013-1-3,39,26,13,25,19,10,92,79,59,30.43,30.35,30.30,10,10,9,7,0,7,0.00,1,,240
2013-1-4,41,29,16,25,21,13,91,78,54,30.48,30.39,30.32,10,10,10,6,0,7,0.00,0,,325
2013-1-5,40,32,24,32,28,22,96,85,59,30.32,30.23,30.14,10,8,2,13,3,17,0.17,6,Rain-Snow,37
2013-1-6,39,36,32,34,31,29,100,90,64,30.33,30.22,30.13,10,5,0,7,2,8,0.00,8,Fog,185
2013-1-7,39,36,33,36,34,30,100,91,85,30.37,30.31,30.24,10,8,0,7,1,13,0.04,8,Fog-Rain,25
2013-1-8,37,36,34,36,35,32,100,95,85,30.41,30.32,30.19,10,4,0,6,1,6,0.00,8,Fog,218
2013-1-9,42,37,31,37,32,24,100,89,59,30.19,30.02,29.90,10,7,1,21,4,26,0.09,8,Rain-Snow,284
2013-1-10,34,29,24,30,27,22,92,85,72,30.19,30.08,29.96,10,6,0,15,3,18,0.05,7,Fog-Snow,159
2013-1-11,35,28,21,28,24,17,92,84,66,30.31,30.19,30.10,10,8,1,8,5,9,0.01,6,Snow,6
2013-1-12,27,20,12,20,14,9,88,80,68,30.39,30.35,30.31,10,10,10,7,2,,0.00,1,,30
2013-1-13,27,19,11,17,12,6,88,80,68,30.51,30.43,30.28,10,10,10,7,2,9,0.00,2,,42
2013-1-14,33,22,11,21,15,7,92,78,49,30.62,30.57,30.51,10,10,10,7,1,8,0.00,0,,80
2013-1-15,37,26,14,23,18,10,88,75,48,30.76,30.71,30.60,10,10,10,6,1,7,0.00,0,,125
2013-1-16,41,28,15,26,20,11,92,79,51,30.77,30.68,30.61,10,10,8,6,1,7,0.00,0,,68
2013-1-17,44,30,15,26,19,12,92,80,49,30.63,30.52,30.45,10,7,1,6,0,6,0.00,1,,202
2013-1-18,44,30,15,26,19,12,92,79,41,30.52,30.45,30.38,10,8,0,7,1,8,0.00,1,Fog,170
2013-1-19,45,29,13,26,19,12,92,75,40,30.54,30.47,30.42,10,10,7,6,1,7,0.00,0,,163
2013-1-20,44,29,13,25,19,12,92,74,40,30.53,30.46,30.39,10,10,7,6,1,7,0.00,0,,210
2013-1-21,45,29,13,23,18,10,92,72,40,30.46,30.38,30.31,10,10,7,7,1,8,0.00,0,,80
2013-1-22,46,31,15,25,21,14,92,72,43,30.31,30.21,30.09,10,10,8,13,3,15,0.00,0,,43
2013-1-23,53,43,33,38,30,20,92,59,29,30.17,30.04,29.97,10,10,7,36,14,44,0.09,7,Rain,172
2013-1-24,52,42,32,42,36,33,100,91,68,30.29,30.21,30.16,10,6,0,9,3,10,0.00,6,Fog,19
2013-1-25,43,37,30,41,35,30,100,96,89,30.28,30.15,29.99,10,3,0,9,3,10,0.15,8,Fog-Rain,93
2013-1-26,47,40,32,37,32,25,100,81,45,30.13,30.02,29.95,10,7,0,20,6,23,0.01,7,Fog-Rain-Snow,14
2013-1-27,42,35,28,31,28,25,92,82,54,30.24,30.16,30.07,10,7,2,12,2,13,0.03,7,Rain-Snow,150
2013-1-28,43,37,30,34,30,28,100,93,70,30.37,30.21,30.11,10,4,0,16,2,20,0.07,7,Fog-Snow,213
2013-1-29,47,38,29,35,31,27,85,71,60,30.54,30.45,30.35,10,10,10,16,5,32,0.00,6,,42
2013-1-30,48,36,24,35,28,23,100,92,65,30.62,30.52,30.46,10,5,0,8,1,9,0.00,2,Fog,323
2013-1-31,42,33,23,35,26,21,100,90,76,30.50,30.41,30.31,10,3,0,8,2,10,0.00,2,Fog,196